createdAt,value
2018-12-06T00:00:42.604Z,2.90
2018-12-06T00:03:11.606Z,3.00
2018-12-06T00:05:40.513Z,3.00
2018-12-06T00:08:16.255Z,3.00
2018-12-06T00:10:46.297Z,3.00
2018-12-06T00:13:16.379Z,3.00
2018-12-06T00:15:44.690Z,3.00
2018-12-06T00:18:13.347Z,3.00
2018-12-06T00:20:42.080Z,3.10
2018-12-06T00:23:14.156Z,3.10
2018-12-06T00:25:42.530Z,3.00
2018-12-06T00:28:15.157Z,3.10
2018-12-06T00:30:43.538Z,3.10
2018-12-06T00:33:12.164Z,3.10
2018-12-06T00:35:43.639Z,3.20
2018-12-06T00:38:12.347Z,3.20
2018-12-06T00:40:40.779Z,3.10
2018-12-06T00:43:09.223Z,3.10
2018-12-06T00:45:37.626Z,3.20
2018-12-06T00:48:06.081Z,3.20
2018-12-06T00:50:34.465Z,3.20
2018-12-06T00:53:02.892Z,3.20
2018-12-06T00:55:31.191Z,3.20
2018-12-06T00:57:59.553Z,3.20
2018-12-06T01:00:27.923Z,3.20
2018-12-06T01:02:56.595Z,3.20
2018-12-06T01:05:25.221Z,3.30
2018-12-06T01:07:53.579Z,3.30
2018-12-06T01:10:21.924Z,3.20
2018-12-06T01:12:50.815Z,3.20
2018-12-06T01:15:19.537Z,3.20
2018-12-06T01:17:48.497Z,3.20
2018-12-06T01:20:16.873Z,3.20
2018-12-06T01:22:45.201Z,3.30
2018-12-06T01:25:14.662Z,3.20
2018-12-06T01:27:44.286Z,3.20
2018-12-06T01:30:12.699Z,3.30
2018-12-06T01:32:40.970Z,3.30
2018-12-06T01:35:09.810Z,3.30
2018-12-06T01:37:38.240Z,3.20
2018-12-06T01:40:06.687Z,3.30
2018-12-06T01:42:35.400Z,3.30
2018-12-06T01:45:03.848Z,3.30
2018-12-06T01:47:32.173Z,3.30
2018-12-06T01:50:00.493Z,3.30
2018-12-06T01:52:29.666Z,3.30
2018-12-06T01:54:59.167Z,3.30
2018-12-06T01:57:27.932Z,3.40
2018-12-06T01:59:56.302Z,3.30
2018-12-06T02:02:24.733Z,3.40
2018-12-06T02:04:53.572Z,3.40
2018-12-06T02:07:22.137Z,3.40
2018-12-06T02:09:51.502Z,3.40
2018-12-06T02:12:21.048Z,3.40
2018-12-06T02:14:49.867Z,3.50
2018-12-06T02:17:19.227Z,3.50
2018-12-06T02:19:47.873Z,3.50
2018-12-06T02:22:16.223Z,3.60
2018-12-06T02:24:45.695Z,3.60
2018-12-06T02:27:15.212Z,3.60
2018-12-06T02:29:49.422Z,3.70
2018-12-06T02:32:17.773Z,3.70
2018-12-06T02:34:46.775Z,3.70
2018-12-06T02:37:18.853Z,3.70
2018-12-06T02:39:47.422Z,3.70
2018-12-06T02:42:16.113Z,3.70
2018-12-06T02:44:44.623Z,3.80
2018-12-06T02:47:14.650Z,3.80
2018-12-06T02:49:43.364Z,3.90
2018-12-06T02:52:11.749Z,3.90
2018-12-06T02:54:41.867Z,4.00
2018-12-06T02:57:10.379Z,4.00
2018-12-06T02:59:41.280Z,4.00
2018-12-06T03:02:11.978Z,4.00
2018-12-06T03:04:40.384Z,4.00
2018-12-06T03:07:09.801Z,4.00
2018-12-06T03:09:39.579Z,4.00
2018-12-06T03:12:10.256Z,4.10
2018-12-06T03:14:38.516Z,4.10
2018-12-06T03:17:07.964Z,4.10
2018-12-06T03:19:36.754Z,4.20
2018-12-06T03:22:05.254Z,4.20
2018-12-06T03:24:35.775Z,4.20
2018-12-06T03:29:41.210Z,4.20
2018-12-06T03:32:11.792Z,4.20
2018-12-06T03:34:40.180Z,4.30
2018-12-06T03:37:09.947Z,4.30
2018-12-06T03:39:39.924Z,4.30
2018-12-06T03:42:10.300Z,4.30
2018-12-06T03:44:39.963Z,4.30
2018-12-06T03:47:08.346Z,4.40
2018-12-06T03:49:36.767Z,4.30
2018-12-06T03:52:05.154Z,4.30
2018-12-06T03:54:35.212Z,4.40
2018-12-06T03:57:13.515Z,4.40
2018-12-06T03:59:43.805Z,4.40
2018-12-06T04:02:21.358Z,4.40
2018-12-06T04:04:58.109Z,4.40
2018-12-06T04:07:27.887Z,4.50
2018-12-06T04:09:56.573Z,4.50
2018-12-06T04:12:25.367Z,4.50
2018-12-06T04:14:55.587Z,4.50
2018-12-06T04:17:24.393Z,4.50
2018-12-06T04:19:52.974Z,4.60
2018-12-06T04:22:21.913Z,4.60
2018-12-06T04:24:50.402Z,4.60
2018-12-06T04:27:18.995Z,4.60
2018-12-06T04:29:47.419Z,4.60
2018-12-06T04:32:17.569Z,4.60
2018-12-06T04:34:53.711Z,4.60
2018-12-06T04:37:22.400Z,4.60
2018-12-06T04:39:54.792Z,4.60
2018-12-06T04:42:23.443Z,4.70
2018-12-06T04:44:52.831Z,4.70
2018-12-06T04:47:28.100Z,4.70
2018-12-06T04:49:56.527Z,4.80
2018-12-06T04:52:30.912Z,4.80
2018-12-06T04:54:59.991Z,4.80
2018-12-06T05:00:16.459Z,4.80
2018-12-06T05:02:45.853Z,4.80
2018-12-06T05:05:17.883Z,4.80
2018-12-06T05:10:29.159Z,4.80
2018-12-06T05:13:33.461Z,4.80
2018-12-06T05:16:14.805Z,4.80
2018-12-06T05:18:43.721Z,4.80
2018-12-06T05:21:13.527Z,4.80
2018-12-06T05:37:40.534Z,4.90
2018-12-06T05:40:08.885Z,4.90
2018-12-06T05:42:37.235Z,5.00
2018-12-06T05:45:05.847Z,5.10
2018-12-06T05:47:34.266Z,5.10
2018-12-06T05:50:02.705Z,5.20
2018-12-06T05:52:31.037Z,5.20
2018-12-06T05:55:00.059Z,5.30
2018-12-06T05:57:28.351Z,5.40
2018-12-06T05:59:56.720Z,5.40
2018-12-06T06:02:25.155Z,5.50
2018-12-06T06:04:53.499Z,5.50
2018-12-06T06:07:21.754Z,5.60
2018-12-06T06:09:50.151Z,5.60
2018-12-06T06:12:18.511Z,5.60
2018-12-06T06:14:46.912Z,5.60
2018-12-06T06:17:15.284Z,5.60
2018-12-06T06:19:43.692Z,5.70
2018-12-06T06:22:12.052Z,5.70
2018-12-06T06:24:40.374Z,5.70
2018-12-06T06:27:08.837Z,5.70
2018-12-06T06:32:33.706Z,5.90
2018-12-06T06:35:02.141Z,6.00
2018-12-06T06:37:30.538Z,6.00
2018-12-06T06:39:58.900Z,6.00
2018-12-06T06:42:27.363Z,6.10
2018-12-06T06:44:55.879Z,6.20
2018-12-06T06:47:25.139Z,6.20
2018-12-06T06:49:53.738Z,6.20
2018-12-06T06:52:22.158Z,6.30
2018-12-06T06:54:50.412Z,6.30
2018-12-06T06:57:18.792Z,6.40
2018-12-06T06:59:47.056Z,6.40
2018-12-06T07:02:15.727Z,6.40
2018-12-06T07:04:44.130Z,6.40
2018-12-06T07:07:12.586Z,6.40
2018-12-06T07:09:40.933Z,6.40
2018-12-06T07:12:09.483Z,6.40
2018-12-06T07:14:37.914Z,6.40
2018-12-06T07:17:06.302Z,6.40
2018-12-06T07:19:34.752Z,6.50
2018-12-06T07:22:04.031Z,6.40
2018-12-06T07:24:32.363Z,6.40
2018-12-06T07:27:00.835Z,6.50
2018-12-06T07:29:29.327Z,6.50
2018-12-06T07:31:57.845Z,6.50
2018-12-06T07:34:26.375Z,6.50
2018-12-06T07:36:55.830Z,6.50
2018-12-06T07:39:25.280Z,6.50
2018-12-06T07:41:53.594Z,6.50
2018-12-06T07:44:21.953Z,6.60
2018-12-06T07:46:50.464Z,6.60
2018-12-06T07:49:18.762Z,6.70
2018-12-06T07:51:47.142Z,6.60
2018-12-06T07:54:15.532Z,6.60
2018-12-06T07:56:43.890Z,6.70
2018-12-06T07:59:12.268Z,6.70
2018-12-06T08:01:40.602Z,6.70
2018-12-06T08:04:09.930Z,6.70
2018-12-06T08:06:38.230Z,6.70
2018-12-06T08:09:09.882Z,6.70
2018-12-06T08:11:38.740Z,6.60
2018-12-06T08:14:07.467Z,6.70
2018-12-06T08:16:36.369Z,6.80
2018-12-06T08:19:04.815Z,6.80
2018-12-06T08:21:33.717Z,6.80
2018-12-06T08:24:01.971Z,6.90
2018-12-06T08:26:30.282Z,6.90
2018-12-06T08:28:58.550Z,6.90
2018-12-06T08:31:26.839Z,6.90
2018-12-06T08:33:55.162Z,7.00
2018-12-06T08:36:23.521Z,7.00
2018-12-06T08:38:52.068Z,7.10
2018-12-06T08:41:20.450Z,7.10
2018-12-06T08:43:48.768Z,7.20
2018-12-06T08:46:17.202Z,7.20
2018-12-06T08:48:45.539Z,7.20
2018-12-06T08:51:13.791Z,7.20
2018-12-06T08:53:42.811Z,7.30
2018-12-06T08:56:11.082Z,7.30
2018-12-06T08:58:39.482Z,7.30
2018-12-06T09:01:08.660Z,7.30
2018-12-06T09:03:37.077Z,7.30
2018-12-06T09:06:05.799Z,7.40
2018-12-06T09:08:34.130Z,7.30
2018-12-06T09:11:02.686Z,7.40
2018-12-06T09:13:31.244Z,7.40
2018-12-06T09:15:59.529Z,7.40
2018-12-06T09:18:27.902Z,7.40
2018-12-06T09:20:56.236Z,7.40
2018-12-06T09:23:24.482Z,7.50
2018-12-06T09:25:52.814Z,7.50
2018-12-06T09:28:21.243Z,7.50
2018-12-06T09:30:49.596Z,7.60
2018-12-06T09:33:18.016Z,7.60
2018-12-06T09:35:46.465Z,7.60
2018-12-06T09:38:14.777Z,7.70
2018-12-06T09:40:43.210Z,7.70
2018-12-06T09:43:11.504Z,7.80
2018-12-06T09:45:39.772Z,7.80
2018-12-06T09:48:08.122Z,7.70
2018-12-06T09:50:36.443Z,7.80
2018-12-06T09:53:05.565Z,7.80
2018-12-06T09:55:33.979Z,7.80
2018-12-06T09:58:03.102Z,7.80
2018-12-06T10:00:31.588Z,7.80
2018-12-06T10:02:59.971Z,7.80
2018-12-06T10:05:29.171Z,7.80
2018-12-06T10:07:57.518Z,7.90
2018-12-06T10:10:25.887Z,7.90
2018-12-06T10:12:54.151Z,7.80
2018-12-06T10:15:22.491Z,7.90
2018-12-06T10:17:50.873Z,7.80
2018-12-06T10:20:19.188Z,7.80
2018-12-06T10:45:54.439Z,8.00
2018-12-06T10:48:22.870Z,8.00
2018-12-06T10:50:51.415Z,8.10
2018-12-06T10:53:19.682Z,8.10
2018-12-06T10:55:48.549Z,8.10
2018-12-06T10:58:42.344Z,8.20
2018-12-06T11:01:14.299Z,8.20
2018-12-06T11:03:49.982Z,8.20
2018-12-06T11:06:18.657Z,8.30
2018-12-06T11:08:47.098Z,8.30
2018-12-06T11:11:15.421Z,8.40
2018-12-06T11:13:43.758Z,8.40
2018-12-06T11:16:11.969Z,8.50
2018-12-06T11:18:40.267Z,8.40
2018-12-06T11:21:08.594Z,8.50
2018-12-06T11:23:36.818Z,8.50
2018-12-06T11:26:05.384Z,8.60
2018-12-06T11:28:33.644Z,8.60
2018-12-06T11:31:01.952Z,8.70
2018-12-06T11:33:30.253Z,8.80
2018-12-06T11:35:58.700Z,8.80
2018-12-06T11:38:27.170Z,8.90
2018-12-06T11:40:56.535Z,8.80
2018-12-06T11:43:26.155Z,8.80
2018-12-06T11:45:54.390Z,8.80
2018-12-06T11:48:26.966Z,8.80
2018-12-06T11:50:52.985Z,8.80
2018-12-06T11:53:21.916Z,8.80
2018-12-06T11:55:50.367Z,8.80
2018-12-06T11:58:18.804Z,8.70
2018-12-06T12:00:47.464Z,8.80
2018-12-06T12:03:17.031Z,8.80
2018-12-06T12:05:47.513Z,8.80
2018-12-06T12:08:16.416Z,8.80
2018-12-06T12:10:45.050Z,8.80
2018-12-06T12:13:13.811Z,8.80
2018-12-06T12:15:42.150Z,8.80
2018-12-06T12:18:10.629Z,8.80
2018-12-06T12:20:40.480Z,8.80
2018-12-06T12:23:08.706Z,8.90
2018-12-06T12:25:39.224Z,8.80
2018-12-06T12:28:08.947Z,8.80
2018-12-06T12:30:37.228Z,8.80
2018-12-06T12:33:05.621Z,8.80
2018-12-06T12:35:34.343Z,8.80
2018-12-06T12:38:02.717Z,8.80
2018-12-06T12:40:31.788Z,8.80
2018-12-06T12:43:00.103Z,8.80
2018-12-06T12:45:30.573Z,8.80
2018-12-06T12:47:58.870Z,8.80
2018-12-06T12:50:27.131Z,8.80
2018-12-06T12:52:55.463Z,8.80
2018-12-06T12:55:23.798Z,8.80
2018-12-06T12:57:52.051Z,8.80
2018-12-06T13:00:20.918Z,8.80
2018-12-06T13:02:49.279Z,8.80
2018-12-06T13:05:17.581Z,8.80
2018-12-06T13:07:45.898Z,8.80
2018-12-06T13:10:14.127Z,8.90
2018-12-06T13:12:42.580Z,8.90
2018-12-06T13:15:11.006Z,8.90
2018-12-06T13:17:40.141Z,8.90
2018-12-06T13:20:08.614Z,8.80
2018-12-06T13:22:37.014Z,8.80
2018-12-06T13:25:07.603Z,8.80
2018-12-06T13:27:35.837Z,8.90
2018-12-06T13:30:04.959Z,8.90
2018-12-06T13:32:33.300Z,8.90
2018-12-06T13:35:01.615Z,8.90
2018-12-06T13:37:30.131Z,8.90
2018-12-06T13:39:58.469Z,9.00
2018-12-06T13:42:26.848Z,8.90
2018-12-06T13:44:55.166Z,8.90
2018-12-06T13:47:23.475Z,8.90
2018-12-06T13:49:52.522Z,8.90
2018-12-06T13:52:20.844Z,8.90
2018-12-06T13:54:49.362Z,9.00
2018-12-06T13:57:19.680Z,8.90
2018-12-06T13:59:48.330Z,8.90
2018-12-06T14:02:16.624Z,8.90
2018-12-06T14:04:44.933Z,8.90
2018-12-06T14:07:13.241Z,8.90
2018-12-06T14:09:41.432Z,9.00
2018-12-06T14:12:09.760Z,8.90
2018-12-06T14:14:38.121Z,8.90
2018-12-06T14:17:06.356Z,8.90
2018-12-06T14:19:34.672Z,8.90
2018-12-06T14:22:03.907Z,8.90
2018-12-06T14:24:32.203Z,8.90
2018-12-06T14:27:00.789Z,8.90
2018-12-06T14:29:29.109Z,9.00
2018-12-06T14:31:57.632Z,9.00
2018-12-06T14:34:26.036Z,9.00
2018-12-06T14:37:01.665Z,9.00
2018-12-06T14:39:25.007Z,9.00
2018-12-06T14:41:53.328Z,9.00
2018-12-06T14:44:21.624Z,9.00
2018-12-06T14:46:49.937Z,9.00
2018-12-06T14:49:18.343Z,9.00
2018-12-06T14:51:46.699Z,9.10
2018-12-06T14:54:15.169Z,9.10
2018-12-06T14:56:43.576Z,9.20
2018-12-06T14:59:11.883Z,9.10
2018-12-06T15:01:40.335Z,9.20
2018-12-06T15:04:08.789Z,9.30
2018-12-06T15:06:37.708Z,9.30
2018-12-06T15:09:08.398Z,9.30
2018-12-06T15:11:36.787Z,9.30
2018-12-06T15:14:05.018Z,9.40
2018-12-06T15:16:33.389Z,9.40
2018-12-06T15:19:01.663Z,9.40
2018-12-06T15:21:30.713Z,9.50
2018-12-06T15:23:59.508Z,9.50
2018-12-06T15:26:28.385Z,9.50
2018-12-06T15:28:56.687Z,9.50
2018-12-06T15:31:25.649Z,9.50
2018-12-06T15:33:54.881Z,9.60
2018-12-06T15:36:23.282Z,9.60
2018-12-06T15:38:52.383Z,9.60
2018-12-06T15:41:20.715Z,9.60
2018-12-06T15:43:49.774Z,9.60
2018-12-06T15:46:18.149Z,9.50
2018-12-06T15:48:46.621Z,9.50
2018-12-06T15:51:16.007Z,9.50
2018-12-06T15:53:44.280Z,9.50
2018-12-06T15:56:12.687Z,9.40
2018-12-06T15:58:41.071Z,9.50
2018-12-06T16:01:10.182Z,9.50
2018-12-06T16:03:38.511Z,9.40
2018-12-06T16:06:06.923Z,9.40
2018-12-06T16:08:35.298Z,9.30
2018-12-06T16:11:03.679Z,9.40
2018-12-06T16:13:32.019Z,9.40
2018-12-06T16:16:00.619Z,9.30
2018-12-06T16:18:28.898Z,9.20
2018-12-06T16:20:57.653Z,9.20
2018-12-06T16:23:27.675Z,9.20
2018-12-06T16:25:56.240Z,9.20
2018-12-06T16:28:24.678Z,9.20
2018-12-06T16:30:53.020Z,9.20
2018-12-06T16:33:21.407Z,9.20
2018-12-06T16:35:49.653Z,9.20
2018-12-06T16:38:18.565Z,9.20
2018-12-06T16:40:46.940Z,9.20
2018-12-06T16:43:15.337Z,9.20
2018-12-06T16:45:43.770Z,9.20
2018-12-06T16:48:12.415Z,9.20
2018-12-06T16:50:41.102Z,9.20
2018-12-06T16:53:09.571Z,9.30
2018-12-06T16:55:37.903Z,9.30
2018-12-06T16:58:06.494Z,9.30
2018-12-06T17:00:36.126Z,9.30
2018-12-06T17:03:06.383Z,9.30
2018-12-06T17:05:34.808Z,9.30
2018-12-06T17:08:03.930Z,9.30
2018-12-06T17:10:33.211Z,9.30
2018-12-06T17:13:01.507Z,9.30
2018-12-06T17:15:31.217Z,9.30
2018-12-06T17:18:00.066Z,9.30
2018-12-06T17:20:28.453Z,9.30
2018-12-06T17:22:56.746Z,9.30
2018-12-06T17:25:25.656Z,9.40
2018-12-06T17:27:54.756Z,9.30
2018-12-06T17:30:23.049Z,9.30
2018-12-06T17:32:51.422Z,9.20
2018-12-06T17:35:19.934Z,9.30
2018-12-06T17:37:49.161Z,9.30
2018-12-06T17:40:17.453Z,9.30
2018-12-06T17:42:45.962Z,9.30
2018-12-06T17:45:14.590Z,9.30
2018-12-06T17:47:42.865Z,9.30
2018-12-06T17:50:11.552Z,9.30
2018-12-06T17:52:39.825Z,9.30
2018-12-06T17:55:09.481Z,9.30
2018-12-06T17:57:38.133Z,9.30
2018-12-06T18:00:08.370Z,9.30
2018-12-06T18:02:36.884Z,9.30
2018-12-06T18:05:05.568Z,9.30
2018-12-06T18:07:34.194Z,9.30
2018-12-06T18:10:02.492Z,9.30
2018-12-06T18:12:30.815Z,9.30
2018-12-06T18:14:59.090Z,9.30
2018-12-06T18:17:27.458Z,9.20
2018-12-06T18:19:55.800Z,9.20
2018-12-06T18:22:25.391Z,9.20
2018-12-06T18:24:54.555Z,9.20
2018-12-06T18:27:22.838Z,9.20
2018-12-06T18:29:51.189Z,9.20
2018-12-06T18:32:19.548Z,9.20
2018-12-06T18:34:48.514Z,9.20
2018-12-06T18:37:16.851Z,9.30
2018-12-06T18:39:45.113Z,9.30
2018-12-06T18:42:13.506Z,9.30
2018-12-06T18:44:41.709Z,9.30
2018-12-06T18:47:10.048Z,9.30
2018-12-06T18:49:39.470Z,9.30
2018-12-06T18:52:08.434Z,9.40
2018-12-06T18:54:36.741Z,9.40
2018-12-06T18:57:05.171Z,9.40
2018-12-06T18:59:33.610Z,9.40
2018-12-06T19:02:02.331Z,9.40
2018-12-06T19:04:30.884Z,9.40
2018-12-06T19:07:00.165Z,9.40
2018-12-06T19:09:28.431Z,9.40
2018-12-06T19:11:56.834Z,9.40
2018-12-06T19:14:25.718Z,9.40
2018-12-06T19:16:54.087Z,9.40
2018-12-06T19:19:22.475Z,9.40
2018-12-06T19:21:51.185Z,9.40
2018-12-06T19:24:21.235Z,9.40
2018-12-06T19:26:50.498Z,9.40
2018-12-06T19:29:20.072Z,9.40
2018-12-06T19:31:51.004Z,9.40
2018-12-06T19:34:20.569Z,9.40
2018-12-06T19:36:49.798Z,9.40
2018-12-06T19:39:18.270Z,9.40
2018-12-06T19:41:46.549Z,9.40
2018-12-06T19:44:14.948Z,9.40
2018-12-06T19:46:43.571Z,9.40
2018-12-06T19:49:14.050Z,9.40
2018-12-06T19:51:43.112Z,9.40
2018-12-06T19:54:11.384Z,9.40
2018-12-06T19:56:39.725Z,9.50
2018-12-06T19:59:08.275Z,9.50
2018-12-06T20:01:36.687Z,9.50
2018-12-06T20:04:05.418Z,9.50
2018-12-06T20:06:33.676Z,9.50
2018-12-06T20:09:02.727Z,9.50
2018-12-06T20:11:30.962Z,9.50
2018-12-06T20:13:59.563Z,9.50
2018-12-06T20:16:27.889Z,9.50
2018-12-06T20:18:56.498Z,9.50
2018-12-06T20:21:25.173Z,9.50
2018-12-06T20:23:53.825Z,9.50
2018-12-06T20:26:23.317Z,9.50
2018-12-06T20:28:51.939Z,9.50
2018-12-06T20:31:20.543Z,9.60
2018-12-06T20:33:48.839Z,9.50
2018-12-06T20:36:17.126Z,9.60
2018-12-06T20:38:45.435Z,9.60
2018-12-06T20:41:13.703Z,9.60
2018-12-06T20:43:42.833Z,9.60
2018-12-06T20:46:11.135Z,9.60
2018-12-06T20:48:39.553Z,9.60
2018-12-06T20:51:07.923Z,9.60
2018-12-06T20:53:36.306Z,9.60
2018-12-06T20:56:05.022Z,9.70
2018-12-06T20:58:33.298Z,9.70
2018-12-06T21:01:02.365Z,9.60
2018-12-06T21:03:30.612Z,9.60
2018-12-06T21:05:58.948Z,9.70
2018-12-06T21:08:27.267Z,9.70
2018-12-06T21:10:55.585Z,9.70
2018-12-06T21:13:24.205Z,9.60
2018-12-06T21:15:52.439Z,9.70
2018-12-06T21:18:20.961Z,9.70
2018-12-06T21:20:49.953Z,9.70
2018-12-06T21:23:18.214Z,9.70
2018-12-06T21:25:47.014Z,9.80
2018-12-06T21:28:15.365Z,9.80
2018-12-06T21:30:43.806Z,9.80
2018-12-06T21:33:12.121Z,9.80
2018-12-06T21:35:42.333Z,9.80
2018-12-06T21:38:10.599Z,9.80
2018-12-06T21:40:38.848Z,9.80
2018-12-06T21:43:07.203Z,9.90
2018-12-06T21:45:35.718Z,9.90
2018-12-06T21:48:04.136Z,9.90
2018-12-06T21:50:33.928Z,10.00
2018-12-06T21:53:02.247Z,9.90
2018-12-06T21:55:31.731Z,10.00
2018-12-06T21:58:00.931Z,9.90
2018-12-06T22:00:29.637Z,9.90
2018-12-06T22:02:57.945Z,9.90
2018-12-06T22:05:26.774Z,9.90
2018-12-06T22:07:55.195Z,9.80
2018-12-06T22:10:23.507Z,9.80
2018-12-06T22:12:51.784Z,9.90
2018-12-06T22:15:20.358Z,9.80
2018-12-06T22:17:48.854Z,9.80
2018-12-06T22:20:17.089Z,9.90
2018-12-06T22:22:45.388Z,9.80
2018-12-06T22:25:13.923Z,9.90
2018-12-06T22:27:42.251Z,9.80
2018-12-06T22:30:11.709Z,9.90
2018-12-06T22:32:41.018Z,9.90
2018-12-06T22:35:09.600Z,9.90
2018-12-06T22:37:38.143Z,9.90
2018-12-06T22:40:07.476Z,9.90
2018-12-06T22:42:35.831Z,10.00
2018-12-06T22:46:13.569Z,9.90
2018-12-06T22:48:41.782Z,9.90
2018-12-06T22:51:10.075Z,9.90
2018-12-06T22:53:38.651Z,9.90
2018-12-06T22:56:07.431Z,9.90
2018-12-06T22:58:35.746Z,9.90
2018-12-06T23:01:07.209Z,10.00
2018-12-06T23:03:35.545Z,10.00
2018-12-06T23:06:04.199Z,10.00
2018-12-06T23:08:33.490Z,10.00
2018-12-06T23:11:02.188Z,10.10
2018-12-06T23:13:30.369Z,10.00
2018-12-06T23:15:58.665Z,10.00
2018-12-06T23:18:27.053Z,10.00
2018-12-06T23:20:55.451Z,10.00
2018-12-06T23:23:23.698Z,10.00
2018-12-06T23:25:51.994Z,10.10
2018-12-06T23:28:20.301Z,10.00
2018-12-06T23:30:48.615Z,10.10
2018-12-06T23:33:16.944Z,10.10
2018-12-06T23:35:45.214Z,10.10
2018-12-06T23:38:13.542Z,10.20
2018-12-06T23:40:41.903Z,10.10
2018-12-06T23:43:10.119Z,10.10
2018-12-06T23:45:38.457Z,10.20
2018-12-06T23:48:06.789Z,10.20
2018-12-06T23:50:35.190Z,10.10
2018-12-06T23:53:03.608Z,10.10
2018-12-06T23:55:32.026Z,10.20
2018-12-06T23:58:00.305Z,10.20
